sensor_id;sensor_type;location;lat;lon;timestamp;P1;durP1;ratioP1;P2;durP2;ratioP2
1753;SDS011;58380;48.312;9.246;2023-02-21T06:53:44;15.02;;;4.43;;
1753;SDS011;58380;48.312;9.246;2023-02-21T06:56:14;10.05;;;4.57;;
1753;SDS011;58380;48.312;9.246;2023-02-21T06:58:40;10.63;;;4.72;;
1753;SDS011;58380;48.312;9.246;2023-02-21T07:01:05;9.20;;;4.73;;
1753;SDS011;58380;48.312;9.246;2023-02-21T07:03:31;13.07;;;5.53;;
1753;SDS011;58380;48.312;9.246;2023-02-21T07:05:56;18.88;;;5.68;;
1753;SDS011;58380;48.312;9.246;2023-02-21T07:08:22;13.27;;;5.03;;
1753;SDS011;58380;48.312;9.246;2023-02-21T07:10:49;11.40;;;5.05;;
1753;SDS011;58380;48.312;9.246;2023-02-21T07:13:15;12.57;;;5.07;;
1753;SDS011;58380;48.312;9.246;2023-02-21T07:15:40;12.43;;;5.00;;
1753;SDS011;58380;48.312;9.246;2023-02-21T07:18:05;14.10;;;5.40;;
1753;SDS011;58380;48.312;9.246;2023-02-21T07:20:31;11.73;;;5.40;;
1753;SDS011;58380;48.312;9.246;2023-02-21T07:22:57;10.00;;;4.55;;
1753;SDS011;58380;48.312;9.246;2023-02-21T07:25:23;14.27;;;4.10;;
1753;SDS011;58380;48.312;9.246;2023-02-21T07:27:49;11.60;;;4.88;;
1753;SDS011;58380;48.312;9.246;2023-02-21T07:30:14;14.13;;;4.30;;
1753;SDS011;58380;48.312;9.246;2023-02-21T07:32:41;15.60;;;7.72;;
1753;SDS011;58380;48.312;9.246;2023-02-21T07:35:07;15.70;;;7.28;;
1753;SDS011;58380;48.312;9.246;2023-02-21T07:37:33;14.45;;;5.90;;
1753;SDS011;58380;48.312;9.246;2023-02-21T07:39:58;15.90;;;6.83;;
1753;SDS011;58380;48.312;9.246;2023-02-21T07:42:24;12.10;;;6.20;;
1753;SDS011;58380;48.312;9.246;2023-02-21T07:44:55;13.57;;;6.43;;
1753;SDS011;58380;48.312;9.246;2023-02-21T07:47:22;16.77;;;7.32;;
1753;SDS011;58380;48.312;9.246;2023-02-21T07:49:49;15.95;;;6.80;;
1753;SDS011;58380;48.312;9.246;2023-02-21T07:52:15;14.80;;;7.47;;
1753;SDS011;58380;48.312;9.246;2023-02-21T07:54:42;25.38;;;12.52;;
1753;SDS011;58380;48.312;9.246;2023-02-21T07:57:07;26.48;;;11.80;;
1753;SDS011;58380;48.312;9.246;2023-02-21T07:59:33;19.40;;;9.17;;
1753;SDS011;58380;48.312;9.246;2023-02-21T08:01:58;18.47;;;8.70;;
1753;SDS011;58380;48.312;9.246;2023-02-21T08:04:24;14.52;;;7.43;;
1753;SDS011;58380;48.312;9.246;2023-02-21T08:06:50;14.53;;;7.13;;
1753;SDS011;58380;48.312;9.246;2023-02-21T08:09:15;15.70;;;6.63;;
1753;SDS011;58380;48.312;9.246;2023-02-21T08:11:41;11.88;;;5.90;;
1753;SDS011;58380;48.312;9.246;2023-02-21T08:14:07;14.17;;;6.53;;
1753;SDS011;58380;48.312;9.246;2023-02-21T08:16:32;16.33;;;6.77;;
1753;SDS011;58380;48.312;9.246;2023-02-21T08:18:57;12.73;;;5.50;;
1753;SDS011;58380;48.312;9.246;2023-02-21T08:21:23;15.73;;;6.27;;
1753;SDS011;58380;48.312;9.246;2023-02-21T08:23:52;17.00;;;6.45;;
1753;SDS011;58380;48.312;9.246;2023-02-21T08:26:19;11.93;;;5.07;;
1753;SDS011;58380;48.312;9.246;2023-02-21T08:31:10;12.43;;;5.35;;
1753;SDS011;58380;48.312;9.246;2023-02-21T08:33:36;11.73;;;6.20;;
1753;SDS011;58380;48.312;9.246;2023-02-21T08:36:02;11.37;;;6.10;;
1753;SDS011;58380;48.312;9.246;2023-02-21T08:38:29;13.93;;;6.68;;
1753;SDS011;58380;48.312;9.246;2023-02-21T08:40:54;14.23;;;6.80;;
1753;SDS011;58380;48.312;9.246;2023-02-21T08:43:21;14.50;;;6.30;;
1753;SDS011;58380;48.312;9.246;2023-02-21T08:45:48;12.65;;;6.22;;
1753;SDS011;58380;48.312;9.246;2023-02-21T08:48:16;13.98;;;6.43;;
1753;SDS011;58380;48.312;9.246;2023-02-21T08:50:42;18.93;;;7.03;;
1753;SDS011;58380;48.312;9.246;2023-02-21T08:53:08;10.90;;;5.93;;
1753;SDS011;58380;48.312;9.246;2023-02-21T08:55:37;14.07;;;6.10;;
1753;SDS011;58380;48.312;9.246;2023-02-21T08:58:02;9.63;;;5.33;;
1753;SDS011;58380;48.312;9.246;2023-02-21T09:00:27;11.27;;;4.73;;
1753;SDS011;58380;48.312;9.246;2023-02-21T09:02:53;13.23;;;4.63;;
1753;SDS011;58380;48.312;9.246;2023-02-21T09:05:22;11.85;;;4.82;;
1753;SDS011;58380;48.312;9.246;2023-02-21T09:07:51;9.35;;;3.55;;
1753;SDS011;58380;48.312;9.246;2023-02-21T09:10:22;7.00;;;2.65;;
1753;SDS011;58380;48.312;9.246;2023-02-21T09:12:50;6.60;;;2.90;;
1753;SDS011;58380;48.312;9.246;2023-02-21T09:15:16;5.70;;;2.78;;
1753;SDS011;58380;48.312;9.246;2023-02-21T09:17:42;8.57;;;2.95;;
1753;SDS011;58380;48.312;9.246;2023-02-21T09:20:09;5.90;;;2.65;;
1753;SDS011;58380;48.312;9.246;2023-02-21T09:22:42;5.15;;;2.53;;
1753;SDS011;58380;48.312;9.246;2023-02-21T09:25:11;4.90;;;1.77;;
1753;SDS011;58380;48.312;9.246;2023-02-21T09:27:38;5.95;;;1.88;;
1753;SDS011;58380;48.312;9.246;2023-02-21T09:30:06;3.63;;;1.60;;
1753;SDS011;58380;48.312;9.246;2023-02-21T09:32:47;2.83;;;1.42;;
1753;SDS011;58380;48.312;9.246;2023-02-21T09:35:13;6.28;;;1.73;;
1753;SDS011;58380;48.312;9.246;2023-02-21T09:43:17;5.80;;;2.53;;
1753;SDS011;58380;48.312;9.246;2023-02-21T09:45:47;5.82;;;2.65;;
1753;SDS011;58380;48.312;9.246;2023-02-21T09:48:20;4.18;;;1.80;;
1753;SDS011;58380;48.312;9.246;2023-02-21T09:50:53;3.92;;;1.70;;
1753;SDS011;58380;48.312;9.246;2023-02-21T09:53:28;3.33;;;1.17;;
1753;SDS011;58380;48.312;9.246;2023-02-21T09:55:59;4.07;;;1.73;;
1753;SDS011;58380;48.312;9.246;2023-02-21T09:58:31;5.53;;;1.75;;
1753;SDS011;58380;48.312;9.246;2023-02-21T10:00:59;2.70;;;0.70;;
1753;SDS011;58380;48.312;9.246;2023-02-21T10:03:49;2.65;;;0.90;;
1753;SDS011;58380;48.312;9.246;2023-02-21T10:06:42;1.77;;;0.68;;
1753;SDS011;58380;48.312;9.246;2023-02-21T10:21:01;1.70;;;0.50;;
1753;SDS011;58380;48.312;9.246;2023-02-21T10:23:45;1.17;;;0.50;;
1753;SDS011;58380;48.312;9.246;2023-02-21T10:26:36;1.60;;;0.57;;
1753;SDS011;58380;48.312;9.246;2023-02-21T10:29:06;1.13;;;0.43;;
1753;SDS011;58380;48.312;9.246;2023-02-21T10:31:49;1.65;;;0.50;;
1753;SDS011;58380;48.312;9.246;2023-02-21T10:34:26;1.20;;;0.50;;
1753;SDS011;58380;48.312;9.246;2023-02-21T10:36:56;2.55;;;0.63;;
1753;SDS011;58380;48.312;9.246;2023-02-21T10:42:48;1.73;;;0.43;;
1753;SDS011;58380;48.312;9.246;2023-02-21T10:45:19;1.05;;;0.32;;
1753;SDS011;58380;48.312;9.246;2023-02-21T10:48:00;1.13;;;0.43;;
1753;SDS011;58380;48.312;9.246;2023-02-21T10:53:21;2.15;;;0.40;;
1753;SDS011;58380;48.312;9.246;2023-02-21T10:56:25;2.95;;;0.68;;
1753;SDS011;58380;48.312;9.246;2023-02-21T10:58:55;2.90;;;0.60;;
1753;SDS011;58380;48.312;9.246;2023-02-21T11:03:55;4.38;;;0.60;;
1753;SDS011;58380;48.312;9.246;2023-02-21T11:06:32;1.98;;;0.60;;
1753;SDS011;58380;48.312;9.246;2023-02-21T11:09:22;1.80;;;0.30;;
1753;SDS011;58380;48.312;9.246;2023-02-21T11:17:20;5.57;;;0.60;;
1753;SDS011;58380;48.312;9.246;2023-02-21T11:22:21;1.60;;;0.45;;
1753;SDS011;58380;48.312;9.246;2023-02-21T11:25:07;0.70;;;0.30;;
1753;SDS011;58380;48.312;9.246;2023-02-21T11:33:23;0.98;;;0.38;;
1753;SDS011;58380;48.312;9.246;2023-02-21T11:35:49;0.40;;;0.30;;
1753;SDS011;58380;48.312;9.246;2023-02-21T11:41:20;1.27;;;0.40;;
1753;SDS011;58380;48.312;9.246;2023-02-21T11:44:02;0.82;;;0.30;;
1753;SDS011;58380;48.312;9.246;2023-02-21T11:46:59;2.60;;;0.68;;
1753;SDS011;58380;48.312;9.246;2023-02-21T11:49:53;0.93;;;0.30;;
1753;SDS011;58380;48.312;9.246;2023-02-21T11:52:50;0.63;;;0.30;;
1753;SDS011;58380;48.312;9.246;2023-02-21T11:55:45;1.08;;;0.50;;
1753;SDS011;58380;48.312;9.246;2023-02-21T11:58:48;1.80;;;0.40;;
1753;SDS011;58380;48.312;9.246;2023-02-21T12:01:35;0.90;;;0.20;;
1753;SDS011;58380;48.312;9.246;2023-02-21T12:12:50;0.80;;;0.45;;
1753;SDS011;58380;48.312;9.246;2023-02-21T12:32:31;0.60;;;0.25;;
1753;SDS011;58380;48.312;9.246;2023-02-21T12:35:31;1.50;;;0.43;;
1753;SDS011;58380;48.312;9.246;2023-02-21T12:38:22;1.45;;;0.43;;
1753;SDS011;58380;48.312;9.246;2023-02-21T12:44:10;1.55;;;0.50;;
1753;SDS011;58380;48.312;9.246;2023-02-21T12:46:49;0.95;;;0.47;;
1753;SDS011;58380;48.312;9.246;2023-02-21T12:55:02;3.17;;;0.47;;
1753;SDS011;58380;48.312;9.246;2023-02-21T12:57:45;0.75;;;0.40;;
1753;SDS011;58380;48.312;9.246;2023-02-21T13:00:34;1.08;;;0.30;;
1753;SDS011;58380;48.312;9.246;2023-02-21T13:05:56;0.98;;;0.32;;
1753;SDS011;58380;48.312;9.246;2023-02-21T13:08:43;0.30;;;0.10;;
1753;SDS011;58380;48.312;9.246;2023-02-21T13:11:30;0.40;;;0.30;;
1753;SDS011;58380;48.312;9.246;2023-02-21T13:14:08;0.80;;;0.20;;
1753;SDS011;58380;48.312;9.246;2023-02-21T13:16:42;0.93;;;0.22;;
1753;SDS011;58380;48.312;9.246;2023-02-21T13:19:09;0.95;;;0.40;;
1753;SDS011;58380;48.312;9.246;2023-02-21T13:27:36;0.57;;;0.30;;
1753;SDS011;58380;48.312;9.246;2023-02-21T13:33:00;0.70;;;0.32;;
1753;SDS011;58380;48.312;9.246;2023-02-21T13:35:36;0.98;;;0.50;;
1753;SDS011;58380;48.312;9.246;2023-02-21T13:38:05;1.75;;;0.60;;
1753;SDS011;58380;48.312;9.246;2023-02-21T13:40:35;1.08;;;0.35;;
1753;SDS011;58380;48.312;9.246;2023-02-21T13:43:13;0.88;;;0.50;;
1753;SDS011;58380;48.312;9.246;2023-02-21T13:45:49;1.63;;;0.70;;
1753;SDS011;58380;48.312;9.246;2023-02-21T13:48:21;2.05;;;0.70;;
1753;SDS011;58380;48.312;9.246;2023-02-21T13:50:56;1.50;;;0.70;;
1753;SDS011;58380;48.312;9.246;2023-02-21T13:53:32;1.98;;;0.50;;
1753;SDS011;58380;48.312;9.246;2023-02-21T13:56:41;4.88;;;1.20;;
1753;SDS011;58380;48.312;9.246;2023-02-21T13:59:41;2.90;;;0.80;;
1753;SDS011;58380;48.312;9.246;2023-02-21T14:02:15;1.20;;;0.55;;
1753;SDS011;58380;48.312;9.246;2023-02-21T14:04:59;1.60;;;0.65;;
1753;SDS011;58380;48.312;9.246;2023-02-21T14:12:54;1.10;;;0.45;;
1753;SDS011;58380;48.312;9.246;2023-02-21T14:15:37;0.98;;;0.50;;
1753;SDS011;58380;48.312;9.246;2023-02-21T14:21:26;3.00;;;0.82;;
1753;SDS011;58380;48.312;9.246;2023-02-21T14:24:05;3.00;;;0.57;;
1753;SDS011;58380;48.312;9.246;2023-02-21T14:26:49;2.05;;;0.80;;
1753;SDS011;58380;48.312;9.246;2023-02-21T14:29:36;1.83;;;0.80;;
1753;SDS011;58380;48.312;9.246;2023-02-21T14:34:37;2.43;;;0.90;;
1753;SDS011;58380;48.312;9.246;2023-02-21T14:45:32;2.58;;;0.60;;
1753;SDS011;58380;48.312;9.246;2023-02-21T15:08:21;1.05;;;0.47;;
1753;SDS011;58380;48.312;9.246;2023-02-21T15:10:49;1.40;;;0.60;;
1753;SDS011;58380;48.312;9.246;2023-02-21T15:13:23;1.02;;;0.60;;
1753;SDS011;58380;48.312;9.246;2023-02-21T15:15:58;1.08;;;0.60;;
1753;SDS011;58380;48.312;9.246;2023-02-21T15:18:32;1.00;;;0.60;;
1753;SDS011;58380;48.312;9.246;2023-02-21T15:23:35;1.60;;;0.73;;
1753;SDS011;58380;48.312;9.246;2023-02-21T15:26:16;4.90;;;0.43;;
1753;SDS011;58380;48.312;9.246;2023-02-21T15:31:36;1.27;;;0.52;;
1753;SDS011;58380;48.312;9.246;2023-02-21T15:34:17;2.60;;;0.75;;
1753;SDS011;58380;48.312;9.246;2023-02-21T15:36:45;3.85;;;1.85;;
1753;SDS011;58380;48.312;9.246;2023-02-21T15:39:28;8.80;;;3.30;;
1753;SDS011;58380;48.312;9.246;2023-02-21T15:41:59;1.65;;;0.60;;
1753;SDS011;58380;48.312;9.246;2023-02-21T15:44:32;2.20;;;1.10;;
1753;SDS011;58380;48.312;9.246;2023-02-21T15:52:46;2.58;;;1.00;;
1753;SDS011;58380;48.312;9.246;2023-02-21T15:58:00;1.38;;;0.52;;
1753;SDS011;58380;48.312;9.246;2023-02-21T16:06:14;2.05;;;0.77;;
1753;SDS011;58380;48.312;9.246;2023-02-21T16:19:36;1.60;;;0.73;;
1753;SDS011;58380;48.312;9.246;2023-02-21T16:22:08;1.42;;;0.63;;
1753;SDS011;58380;48.312;9.246;2023-02-21T16:25:07;3.80;;;1.08;;
1753;SDS011;58380;48.312;9.246;2023-02-21T16:27:36;3.63;;;0.90;;
1753;SDS011;58380;48.312;9.246;2023-02-21T16:30:10;3.58;;;0.88;;
1753;SDS011;58380;48.312;9.246;2023-02-21T16:32:40;3.03;;;0.80;;
1753;SDS011;58380;48.312;9.246;2023-02-21T16:35:13;1.67;;;0.70;;
1753;SDS011;58380;48.312;9.246;2023-02-21T16:37:45;4.25;;;1.05;;
1753;SDS011;58380;48.312;9.246;2023-02-21T16:40:13;3.38;;;1.08;;
1753;SDS011;58380;48.312;9.246;2023-02-21T16:42:46;5.68;;;1.50;;
1753;SDS011;58380;48.312;9.246;2023-02-21T16:45:12;2.28;;;1.00;;
1753;SDS011;58380;48.312;9.246;2023-02-21T16:47:37;1.92;;;0.63;;
1753;SDS011;58380;48.312;9.246;2023-02-21T16:50:02;4.73;;;0.73;;
1753;SDS011;58380;48.312;9.246;2023-02-21T16:52:28;3.05;;;0.82;;
1753;SDS011;58380;48.312;9.246;2023-02-21T16:54:54;4.15;;;0.70;;
1753;SDS011;58380;48.312;9.246;2023-02-21T16:57:19;2.73;;;0.87;;
1753;SDS011;58380;48.312;9.246;2023-02-21T16:59:45;3.78;;;0.80;;
1753;SDS011;58380;48.312;9.246;2023-02-21T17:02:12;4.45;;;0.60;;
1753;SDS011;58380;48.312;9.246;2023-02-21T17:04:39;2.22;;;0.70;;
1753;SDS011;58380;48.312;9.246;2023-02-21T17:07:04;1.05;;;0.60;;
1753;SDS011;58380;48.312;9.246;2023-02-21T17:09:35;2.97;;;0.60;;
1753;SDS011;58380;48.312;9.246;2023-02-21T17:12:05;5.35;;;2.03;;
1753;SDS011;58380;48.312;9.246;2023-02-21T17:14:31;5.60;;;1.27;;
1753;SDS011;58380;48.312;9.246;2023-02-21T17:16:58;1.77;;;0.70;;
1753;SDS011;58380;48.312;9.246;2023-02-21T17:19:23;1.80;;;0.57;;
1753;SDS011;58380;48.312;9.246;2023-02-21T17:21:49;1.90;;;0.80;;
1753;SDS011;58380;48.312;9.246;2023-02-21T17:24:16;3.22;;;0.60;;
1753;SDS011;58380;48.312;9.246;2023-02-21T17:26:42;1.85;;;0.77;;
1753;SDS011;58380;48.312;9.246;2023-02-21T17:29:09;3.53;;;0.60;;
1753;SDS011;58380;48.312;9.246;2023-02-21T17:34:00;3.95;;;1.27;;
1753;SDS011;58380;48.312;9.246;2023-02-21T17:36:26;3.25;;;1.58;;
1753;SDS011;58380;48.312;9.246;2023-02-21T17:38:54;3.15;;;0.75;;
1753;SDS011;58380;48.312;9.246;2023-02-21T17:41:21;3.20;;;0.80;;
1753;SDS011;58380;48.312;9.246;2023-02-21T17:43:46;3.80;;;0.70;;
1753;SDS011;58380;48.312;9.246;2023-02-21T17:46:13;1.55;;;0.80;;
1753;SDS011;58380;48.312;9.246;2023-02-21T17:48:41;7.18;;;0.93;;
1753;SDS011;58380;48.312;9.246;2023-02-21T17:51:08;1.83;;;0.77;;
1753;SDS011;58380;48.312;9.246;2023-02-21T17:53:41;2.03;;;0.70;;
1753;SDS011;58380;48.312;9.246;2023-02-21T17:56:06;3.60;;;0.90;;
1753;SDS011;58380;48.312;9.246;2023-02-21T17:58:32;5.10;;;1.13;;
1753;SDS011;58380;48.312;9.246;2023-02-21T18:00:57;7.57;;;1.83;;
1753;SDS011;58380;48.312;9.246;2023-02-21T18:03:23;4.75;;;1.23;;
1753;SDS011;58380;48.312;9.246;2023-02-21T18:05:50;5.63;;;0.90;;
1753;SDS011;58380;48.312;9.246;2023-02-21T18:08:16;4.05;;;1.00;;
1753;SDS011;58380;48.312;9.246;2023-02-21T18:10:42;6.85;;;1.75;;
1753;SDS011;58380;48.312;9.246;2023-02-21T18:13:13;5.15;;;0.93;;
1753;SDS011;58380;48.312;9.246;2023-02-21T18:15:44;3.28;;;1.00;;
1753;SDS011;58380;48.312;9.246;2023-02-21T18:18:10;2.25;;;0.90;;
1753;SDS011;58380;48.312;9.246;2023-02-21T18:20:36;2.90;;;0.90;;
1753;SDS011;58380;48.312;9.246;2023-02-21T18:23:02;1.98;;;0.70;;
1753;SDS011;58380;48.312;9.246;2023-02-21T18:25:30;6.28;;;1.20;;
1753;SDS011;58380;48.312;9.246;2023-02-21T18:27:58;7.10;;;0.90;;
1753;SDS011;58380;48.312;9.246;2023-02-21T18:30:24;1.70;;;0.88;;
1753;SDS011;58380;48.312;9.246;2023-02-21T18:32:50;1.80;;;0.80;;
1753;SDS011;58380;48.312;9.246;2023-02-21T18:35:16;2.83;;;0.88;;
1753;SDS011;58380;48.312;9.246;2023-02-21T18:37:42;5.38;;;1.40;;
1753;SDS011;58380;48.312;9.246;2023-02-21T18:40:11;4.97;;;1.00;;
1753;SDS011;58380;48.312;9.246;2023-02-21T18:42:39;1.90;;;0.68;;
1753;SDS011;58380;48.312;9.246;2023-02-21T18:45:06;3.08;;;0.85;;
1753;SDS011;58380;48.312;9.246;2023-02-21T18:47:32;2.92;;;1.05;;
1753;SDS011;58380;48.312;9.246;2023-02-21T18:49:58;5.10;;;1.17;;
1753;SDS011;58380;48.312;9.246;2023-02-21T18:52:25;6.22;;;1.08;;
1753;SDS011;58380;48.312;9.246;2023-02-21T18:54:52;3.97;;;1.00;;
1753;SDS011;58380;48.312;9.246;2023-02-21T18:57:20;2.15;;;0.70;;
1753;SDS011;58380;48.312;9.246;2023-02-21T18:59:46;3.15;;;0.93;;
1753;SDS011;58380;48.312;9.246;2023-02-21T19:07:07;2.45;;;0.80;;
1753;SDS011;58380;48.312;9.246;2023-02-21T19:09:37;2.22;;;1.00;;
1753;SDS011;58380;48.312;9.246;2023-02-21T19:12:04;2.85;;;1.00;;
1753;SDS011;58380;48.312;9.246;2023-02-21T19:14:33;2.58;;;1.10;;
1753;SDS011;58380;48.312;9.246;2023-02-21T19:16:59;2.97;;;0.98;;
1753;SDS011;58380;48.312;9.246;2023-02-21T19:19:25;4.43;;;1.40;;
1753;SDS011;58380;48.312;9.246;2023-02-21T19:21:55;3.55;;;1.27;;
1753;SDS011;58380;48.312;9.246;2023-02-21T19:24:21;7.35;;;1.23;;
1753;SDS011;58380;48.312;9.246;2023-02-21T19:26:46;5.47;;;1.30;;
1753;SDS011;58380;48.312;9.246;2023-02-21T19:29:11;5.23;;;1.37;;
1753;SDS011;58380;48.312;9.246;2023-02-21T19:31:37;3.90;;;1.10;;
1753;SDS011;58380;48.312;9.246;2023-02-21T19:34:02;5.60;;;1.37;;
1753;SDS011;58380;48.312;9.246;2023-02-21T19:36:28;2.63;;;1.30;;
1753;SDS011;58380;48.312;9.246;2023-02-21T19:38:54;4.63;;;1.50;;
1753;SDS011;58380;48.312;9.246;2023-02-21T19:41:19;9.47;;;1.30;;
1753;SDS011;58380;48.312;9.246;2023-02-21T19:43:45;6.47;;;1.40;;
1753;SDS011;58380;48.312;9.246;2023-02-21T19:46:21;4.38;;;1.50;;
1753;SDS011;58380;48.312;9.246;2023-02-21T19:48:51;5.53;;;1.58;;
1753;SDS011;58380;48.312;9.246;2023-02-21T19:51:18;6.75;;;1.50;;
1753;SDS011;58380;48.312;9.246;2023-02-21T19:53:47;4.13;;;1.33;;
1753;SDS011;58380;48.312;9.246;2023-02-21T19:56:13;5.68;;;1.30;;
1753;SDS011;58380;48.312;9.246;2023-02-21T19:58:39;4.28;;;1.65;;
1753;SDS011;58380;48.312;9.246;2023-02-21T20:01:05;14.27;;;5.37;;
1753;SDS011;58380;48.312;9.246;2023-02-21T20:03:32;7.60;;;3.45;;
1753;SDS011;58380;48.312;9.246;2023-02-21T20:05:58;14.50;;;5.75;;
1753;SDS011;58380;48.312;9.246;2023-02-21T20:08:25;24.98;;;8.73;;
1753;SDS011;58380;48.312;9.246;2023-02-21T20:10:53;26.70;;;8.48;;
1753;SDS011;58380;48.312;9.246;2023-02-21T20:13:19;13.18;;;5.07;;
1753;SDS011;58380;48.312;9.246;2023-02-21T20:15:46;6.18;;;2.70;;
1753;SDS011;58380;48.312;9.246;2023-02-21T20:18:11;11.35;;;2.83;;
1753;SDS011;58380;48.312;9.246;2023-02-21T20:20:38;6.25;;;2.00;;
1753;SDS011;58380;48.312;9.246;2023-02-21T20:23:05;5.07;;;1.88;;
1753;SDS011;58380;48.312;9.246;2023-02-21T20:25:32;5.65;;;1.92;;
1753;SDS011;58380;48.312;9.246;2023-02-21T20:27:59;4.30;;;1.70;;
1753;SDS011;58380;48.312;9.246;2023-02-21T20:30:24;5.50;;;2.17;;
1753;SDS011;58380;48.312;9.246;2023-02-21T20:32:50;4.17;;;1.83;;
1753;SDS011;58380;48.312;9.246;2023-02-21T20:35:15;6.40;;;2.30;;
1753;SDS011;58380;48.312;9.246;2023-02-21T20:37:43;4.18;;;1.60;;
1753;SDS011;58380;48.312;9.246;2023-02-21T20:40:11;3.70;;;1.67;;
1753;SDS011;58380;48.312;9.246;2023-02-21T20:42:39;4.28;;;1.83;;
1753;SDS011;58380;48.312;9.246;2023-02-21T20:45:07;4.55;;;1.88;;
1753;SDS011;58380;48.312;9.246;2023-02-21T20:47:36;6.32;;;2.10;;
1753;SDS011;58380;48.312;9.246;2023-02-21T20:52:31;5.03;;;1.70;;
1753;SDS011;58380;48.312;9.246;2023-02-21T20:54:58;6.05;;;2.00;;
1753;SDS011;58380;48.312;9.246;2023-02-21T20:57:25;5.28;;;3.05;;
1753;SDS011;58380;48.312;9.246;2023-02-21T20:59:50;4.80;;;2.00;;
1753;SDS011;58380;48.312;9.246;2023-02-21T21:02:16;6.97;;;2.13;;
1753;SDS011;58380;48.312;9.246;2023-02-21T21:04:42;4.03;;;2.15;;
1753;SDS011;58380;48.312;9.246;2023-02-21T21:07:11;7.10;;;2.10;;
1753;SDS011;58380;48.312;9.246;2023-02-21T21:09:45;6.80;;;2.25;;
1753;SDS011;58380;48.312;9.246;2023-02-21T21:12:14;6.80;;;2.30;;
1753;SDS011;58380;48.312;9.246;2023-02-21T21:14:42;7.68;;;2.50;;
1753;SDS011;58380;48.312;9.246;2023-02-21T21:17:11;4.60;;;2.20;;
1753;SDS011;58380;48.312;9.246;2023-02-21T21:19:41;4.57;;;2.17;;
1753;SDS011;58380;48.312;9.246;2023-02-21T21:22:10;7.18;;;2.30;;
1753;SDS011;58380;48.312;9.246;2023-02-21T21:24:39;6.13;;;3.15;;
1753;SDS011;58380;48.312;9.246;2023-02-21T21:27:05;5.47;;;2.72;;
1753;SDS011;58380;48.312;9.246;2023-02-21T21:29:34;7.13;;;3.22;;
1753;SDS011;58380;48.312;9.246;2023-02-21T21:32:08;6.63;;;3.00;;
1753;SDS011;58380;48.312;9.246;2023-02-21T21:34:36;6.80;;;2.88;;
1753;SDS011;58380;48.312;9.246;2023-02-21T21:37:05;5.22;;;2.88;;
1753;SDS011;58380;48.312;9.246;2023-02-21T21:39:32;4.50;;;2.42;;
1753;SDS011;58380;48.312;9.246;2023-02-21T21:42:03;6.05;;;2.92;;
1753;SDS011;58380;48.312;9.246;2023-02-21T21:44:35;6.00;;;2.35;;
